Decoded Metar for LDDU (DUBROVNIK in CROATIA) (IATA:DBV) | Meteo·Mobile Aviation Weather
aviador You're here:

LDDU Decoded Metar

DUBROVNIK in CROATIA
Report Time2018-11-18 01:00:00
UTC Time2018-11-18 01:34:10
Flight Rules vfr VFR
Wind020° at 17 kt
W.Decomp.*RWY 30: 3.8 kt HW 16.6 kt RCW
W.Rank020° ranks 1
Current wind is above 020° avg. (15.6)
Visibility9999 m
Phenomena:N/A
Clouds:N/A
Expected CloudBase > 4,400 ft AGL from Temp-Dew spread
CeilingNone
Temp08°C (ISA -6)
Dew Point-3°C (46% RH)
AAT-0.5°C
QNH1018 hPa
Density Alt-269 ft
Elevation541 ft
Report Wrong Elevation
Raw Report
LDDU 180100Z 02017KT 340V050 CAVOK 08/M03 Q1018=

Extra information for LDDU:More info

Metar Taf Metar & Taf Last 4 Metars F.Rules Stats Wind Profile Meteogram Temp Stats Airport Information Weather charts Add Link Nearby VenuesMetar ALERT Operation Metar Decoded Social comments